Time;durP1;ratioP1;P1;durP2;ratioP2;P2;SDS_P1;SDS_P2;PMS_P1;PMS_P2;Temp;Humidity;BMP_temperature;BMP_pressure;BME280_temperature;BME280_humidity;BME280_pressure;Samples;Min_cycle;Max_cycle;Signal;HPM_P1;HPM_P2
2023/07/29 00:00:00;;;;;;;6.40;1.23;;;;;;;;;;5042339;28;20174;-65
2023/07/29 00:02:29;;;;;;;2.58;0.95;;;;;;;;;;5041938;28;20123;-63
2023/07/29 00:04:56;;;;;;;4.85;1.00;;;;;;;;;;5041118;28;20184;-68
2023/07/29 00:07:22;;;;;;;1.70;1.13;;;;;;;;;;5067212;28;20050;-67
2023/07/29 00:09:48;;;;;;;1.60;0.90;;;;;;;;;;5038779;28;20112;-66
2023/07/29 00:12:15;;;;;;;1.00;0.80;;;;;;;;;;5042055;28;20418;-64
2023/07/29 00:14:41;;;;;;;0.80;0.80;;;;;;;;;;5042027;28;20606;-67
2023/07/29 00:17:08;;;;;;;1.05;0.82;;;;;;;;;;5038495;28;20061;-67
2023/07/29 00:19:35;;;;;;;2.55;1.00;;;;;;;;;;5043604;28;20049;-67
2023/07/29 00:22:01;;;;;;;1.88;1.05;;;;;;;;;;5035361;28;20050;-66
2023/07/29 00:24:28;;;;;;;2.72;0.90;;;;;;;;;;5043811;28;20315;-67
2023/07/29 00:26:54;;;;;;;4.90;1.20;;;;;;;;;;5042325;28;20161;-64
2023/07/29 00:29:21;;;;;;;1.00;0.90;;;;;;;;;;5041899;28;21163;-68
2023/07/29 00:31:47;;;;;;;1.40;1.02;;;;;;;;;;5041018;28;20053;-60
2023/07/29 00:34:18;;;;;;;1.65;1.10;;;;;;;;;;5045553;28;20056;-64
2023/07/29 00:36:45;;;;;;;3.13;1.05;;;;;;;;;;5041383;28;20108;-65
2023/07/29 00:39:11;;;;;;;3.08;1.20;;;;;;;;;;5031590;28;20401;-65
2023/07/29 00:41:38;;;;;;;1.63;0.80;;;;;;;;;;5039348;28;20524;-68
2023/07/29 00:44:05;;;;;;;2.70;1.00;;;;;;;;;;5045407;28;20053;-68
2023/07/29 00:46:33;;;;;;;2.67;1.58;;;;;;;;;;5044447;28;20057;-66
2023/07/29 00:49:00;;;;;;;1.42;1.00;;;;;;;;;;5041565;28;20554;-68
2023/07/29 00:51:26;;;;;;;2.35;1.30;;;;;;;;;;5036339;28;20512;-67
2023/07/29 00:53:52;;;;;;;2.20;1.00;;;;;;;;;;5040722;28;20049;-66
2023/07/29 00:56:19;;;;;;;2.88;0.93;;;;;;;;;;5043328;28;20085;-68
2023/07/29 00:58:46;;;;;;;5.18;1.38;;;;;;;;;;5041352;28;20058;-67
2023/07/29 01:01:12;;;;;;;2.70;1.10;;;;;;;;;;5041547;28;20137;-63
2023/07/29 01:03:39;;;;;;;6.15;1.67;;;;;;;;;;5042037;28;20519;-64
2023/07/29 01:06:07;;;;;;;5.85;1.33;;;;;;;;;;5039370;28;20068;-65
2023/07/29 01:08:54;;;;;;;2.85;1.27;;;;;;;;;;5041996;28;20145;-64
2023/07/29 01:11:33;;;;;;;2.90;1.10;;;;;;;;;;5043401;28;20551;-66
2023/07/29 01:14:13;;;;;;;3.28;1.08;;;;;;;;;;5042699;28;20550;-65
2023/07/29 01:16:41;;;;;;;1.95;1.15;;;;;;;;;;5031320;28;20075;-67
2023/07/29 01:19:15;;;;;;;2.50;1.23;;;;;;;;;;5041570;28;20119;-68
2023/07/29 01:21:41;;;;;;;4.45;1.33;;;;;;;;;;5041363;28;20053;-68
2023/07/29 01:24:08;;;;;;;2.15;1.30;;;;;;;;;;5041143;28;20463;-69
2023/07/29 01:26:34;;;;;;;2.03;1.30;;;;;;;;;;5040942;28;20049;-65
2023/07/29 01:29:01;;;;;;;1.40;1.30;;;;;;;;;;5040250;28;20068;-63
2023/07/29 01:31:37;;;;;;;3.13;1.50;;;;;;;;;;5041380;28;20053;-64
2023/07/29 01:34:15;;;;;;;4.70;1.45;;;;;;;;;;5029906;28;20885;-67
2023/07/29 01:36:42;;;;;;;2.78;1.60;;;;;;;;;;5041577;28;20054;-64
2023/07/29 01:39:14;;;;;;;2.38;1.63;;;;;;;;;;5042259;28;20092;-63
2023/07/29 01:41:41;;;;;;;7.20;1.92;;;;;;;;;;5039825;28;20056;-65
2023/07/29 01:44:07;;;;;;;3.80;2.00;;;;;;;;;;5044476;28;20104;-63
2023/07/29 01:46:34;;;;;;;4.80;1.98;;;;;;;;;;5041679;28;20146;-64
2023/07/29 01:49:01;;;;;;;4.03;2.85;;;;;;;;;;5041349;28;20053;-68
2023/07/29 01:51:27;;;;;;;10.55;5.13;;;;;;;;;;5041641;28;20060;-68
2023/07/29 01:53:55;;;;;;;11.52;6.78;;;;;;;;;;5039189;28;20196;-65
2023/07/29 01:56:21;;;;;;;7.78;4.07;;;;;;;;;;5041162;28;20518;-67
2023/07/29 01:58:48;;;;;;;6.13;3.60;;;;;;;;;;5041780;28;20116;-66
2023/07/29 02:01:15;;;;;;;9.27;3.05;;;;;;;;;;5043563;28;20076;-67
2023/07/29 02:03:41;;;;;;;5.65;2.55;;;;;;;;;;5047207;28;20152;-67
2023/07/29 02:06:08;;;;;;;3.78;2.22;;;;;;;;;;5041428;28;20500;-67
2023/07/29 02:08:35;;;;;;;8.20;2.70;;;;;;;;;;5041404;28;20070;-64
2023/07/29 02:11:01;;;;;;;7.40;3.08;;;;;;;;;;5039166;28;20057;-63
2023/07/29 02:13:28;;;;;;;4.53;2.70;;;;;;;;;;5039633;28;20064;-69
2023/07/29 02:15:54;;;;;;;6.20;3.00;;;;;;;;;;5040390;28;20057;-67
2023/07/29 02:18:21;;;;;;;8.85;2.80;;;;;;;;;;5040845;28;20061;-67
2023/07/29 02:20:49;;;;;;;7.47;3.00;;;;;;;;;;5038532;28;20496;-61
2023/07/29 02:23:19;;;;;;;8.23;3.40;;;;;;;;;;5032933;28;20491;-65
2023/07/29 02:25:45;;;;;;;5.68;3.05;;;;;;;;;;5038763;28;20053;-69
2023/07/29 02:28:11;;;;;;;6.18;3.08;;;;;;;;;;5038133;28;20701;-67
2023/07/29 02:30:40;;;;;;;8.73;3.00;;;;;;;;;;5040333;28;20553;-64
2023/07/29 02:33:07;;;;;;;6.95;4.75;;;;;;;;;;5039503;28;20053;-68
2023/07/29 02:35:33;;;;;;;4.95;2.92;;;;;;;;;;5040054;28;20140;-64
2023/07/29 02:38:00;;;;;;;5.43;3.10;;;;;;;;;;5040708;28;20574;-68
2023/07/29 02:40:28;;;;;;;7.90;3.35;;;;;;;;;;5039892;28;20049;-66
2023/07/29 02:42:54;;;;;;;9.48;3.78;;;;;;;;;;5033426;28;20256;-69
2023/07/29 02:45:20;;;;;;;7.95;3.33;;;;;;;;;;5043650;28;20592;-64
2023/07/29 02:47:47;;;;;;;11.32;3.47;;;;;;;;;;5040594;28;20696;-66
2023/07/29 02:50:13;;;;;;;8.05;3.53;;;;;;;;;;5041084;28;20084;-69
2023/07/29 02:52:40;;;;;;;3.83;2.97;;;;;;;;;;5040965;28;20053;-62
2023/07/29 02:55:06;;;;;;;10.18;3.53;;;;;;;;;;5039839;28;20062;-61
2023/07/29 02:57:33;;;;;;;6.10;2.97;;;;;;;;;;5039179;28;20456;-64
2023/07/29 02:59:59;;;;;;;5.93;3.45;;;;;;;;;;5039607;28;20054;-67
2023/07/29 03:02:26;;;;;;;6.07;3.40;;;;;;;;;;5040236;28;20131;-62
2023/07/29 03:04:52;;;;;;;5.47;3.47;;;;;;;;;;5040013;28;20057;-66
2023/07/29 03:07:20;;;;;;;6.88;2.88;;;;;;;;;;5039428;28;20050;-68
2023/07/29 03:09:46;;;;;;;4.97;2.60;;;;;;;;;;5033200;28;20061;-66
2023/07/29 03:12:13;;;;;;;6.35;2.80;;;;;;;;;;5039301;28;20080;-68
2023/07/29 03:14:41;;;;;;;5.57;3.13;;;;;;;;;;5039938;28;20164;-60
2023/07/29 03:17:07;;;;;;;4.40;2.30;;;;;;;;;;5043933;28;20061;-66
2023/07/29 03:19:34;;;;;;;3.95;2.78;;;;;;;;;;5042222;28;20060;-63
2023/07/29 03:22:00;;;;;;;4.03;2.50;;;;;;;;;;5043622;28;20116;-64
2023/07/29 03:24:27;;;;;;;4.75;2.50;;;;;;;;;;5043112;28;20050;-66
2023/07/29 03:26:53;;;;;;;6.38;2.95;;;;;;;;;;5041984;28;20077;-62
2023/07/29 03:29:20;;;;;;;4.85;2.55;;;;;;;;;;5038930;28;20711;-69
2023/07/29 03:31:46;;;;;;;6.95;2.53;;;;;;;;;;5043401;28;20088;-68
2023/07/29 03:34:13;;;;;;;6.78;2.58;;;;;;;;;;5043469;28;20627;-62
2023/07/29 03:36:40;;;;;;;8.02;3.00;;;;;;;;;;5043757;28;20520;-66
2023/07/29 03:39:07;;;;;;;4.15;2.40;;;;;;;;;;5032948;28;20567;-63
2023/07/29 03:41:34;;;;;;;6.07;2.40;;;;;;;;;;5043971;28;20064;-67
2023/07/29 03:44:00;;;;;;;8.45;2.13;;;;;;;;;;5040432;28;20053;-68
2023/07/29 03:46:26;;;;;;;5.25;2.60;;;;;;;;;;5046999;28;20149;-61
2023/07/29 03:48:53;;;;;;;2.63;2.28;;;;;;;;;;5042589;28;20057;-68
2023/07/29 03:51:20;;;;;;;4.60;2.20;;;;;;;;;;5029533;28;20050;-68
2023/07/29 03:53:47;;;;;;;5.40;2.20;;;;;;;;;;5040997;28;20050;-68
2023/07/29 03:56:13;;;;;;;3.63;2.05;;;;;;;;;;5041247;28;20081;-65
2023/07/29 03:58:40;;;;;;;5.05;2.03;;;;;;;;;;5040675;28;20080;-65
2023/07/29 04:01:07;;;;;;;4.50;2.17;;;;;;;;;;5029979;28;20046;-66
2023/07/29 04:03:33;;;;;;;5.00;2.20;;;;;;;;;;5043450;28;20066;-63
2023/07/29 04:06:00;;;;;;;3.10;2.08;;;;;;;;;;5041526;28;20061;-64
2023/07/29 04:08:26;;;;;;;3.50;2.10;;;;;;;;;;5044846;28;20672;-65
2023/07/29 04:10:53;;;;;;;4.28;2.38;;;;;;;;;;5039165;28;20053;-66
2023/07/29 04:13:19;;;;;;;3.42;1.98;;;;;;;;;;5042047;28;20151;-66
2023/07/29 04:15:46;;;;;;;4.32;2.13;;;;;;;;;;5042724;28;20496;-67
2023/07/29 04:18:12;;;;;;;4.70;2.28;;;;;;;;;;5042360;28;20433;-67
2023/07/29 04:20:39;;;;;;;2.92;2.08;;;;;;;;;;5042243;28;20080;-68
2023/07/29 04:23:05;;;;;;;2.63;2.05;;;;;;;;;;5038225;28;20090;-61
2023/07/29 04:25:32;;;;;;;5.18;2.55;;;;;;;;;;5041699;28;20125;-67
2023/07/29 04:27:59;;;;;;;3.58;2.50;;;;;;;;;;5039768;28;20064;-67
2023/07/29 04:30:25;;;;;;;5.07;2.10;;;;;;;;;;5038592;28;20064;-67
2023/07/29 04:32:52;;;;;;;4.57;2.13;;;;;;;;;;5040755;28;20074;-66
2023/07/29 04:35:18;;;;;;;2.65;2.28;;;;;;;;;;5034124;28;20567;-67
2023/07/29 04:37:45;;;;;;;3.63;2.30;;;;;;;;;;5041382;28;20057;-68
2023/07/29 04:40:11;;;;;;;4.05;2.17;;;;;;;;;;5039023;28;20046;-61
2023/07/29 04:42:37;;;;;;;2.95;2.25;;;;;;;;;;5047969;28;20088;-68
2023/07/29 04:45:04;;;;;;;4.50;2.65;;;;;;;;;;5041220;28;20450;-68
2023/07/29 04:47:31;;;;;;;3.85;2.13;;;;;;;;;;5041675;28;20073;-63
2023/07/29 04:49:57;;;;;;;3.83;2.20;;;;;;;;;;5041596;28;20065;-66
2023/07/29 04:52:24;;;;;;;7.43;2.40;;;;;;;;;;5031195;28;20093;-67
2023/07/29 04:54:50;;;;;;;6.22;2.45;;;;;;;;;;5039740;28;20057;-67
2023/07/29 04:57:17;;;;;;;5.28;1.80;;;;;;;;;;5033790;28;20077;-66
2023/07/29 04:59:43;;;;;;;4.50;2.38;;;;;;;;;;5024601;28;20137;-68
2023/07/29 05:02:10;;;;;;;5.82;2.00;;;;;;;;;;5034186;28;20068;-60
2023/07/29 05:04:36;;;;;;;4.10;2.47;;;;;;;;;;5032402;28;20085;-65
2023/07/29 05:07:03;;;;;;;3.17;1.98;;;;;;;;;;5031366;28;20081;-59
2023/07/29 05:09:29;;;;;;;3.45;1.73;;;;;;;;;;5036680;28;20083;-68
2023/07/29 05:11:56;;;;;;;4.50;2.08;;;;;;;;;;5040858;28;20050;-65
2023/07/29 05:14:22;;;;;;;9.55;1.70;;;;;;;;;;5048421;28;20060;-68
2023/07/29 05:16:49;;;;;;;3.65;1.83;;;;;;;;;;5043028;28;20088;-66
2023/07/29 05:19:15;;;;;;;4.03;1.73;;;;;;;;;;5041979;28;20310;-66
2023/07/29 05:21:42;;;;;;;3.25;1.80;;;;;;;;;;5040297;28;20092;-62
2023/07/29 05:24:08;;;;;;;4.32;1.80;;;;;;;;;;5036283;28;20056;-68
2023/07/29 05:26:35;;;;;;;3.38;1.92;;;;;;;;;;5032356;28;20568;-67
2023/07/29 05:29:03;;;;;;;2.65;2.00;;;;;;;;;;5041759;28;20053;-68
2023/07/29 05:31:30;;;;;;;3.60;1.98;;;;;;;;;;5041942;28;20108;-69
2023/07/29 05:33:56;;;;;;;5.72;1.83;;;;;;;;;;5040051;28;20136;-68
2023/07/29 05:36:23;;;;;;;3.47;2.17;;;;;;;;;;5036224;28;20496;-66
2023/07/29 05:38:49;;;;;;;3.38;2.10;;;;;;;;;;5041712;28;20236;-67
2023/07/29 05:41:16;;;;;;;3.50;2.40;;;;;;;;;;5039365;28;20057;-64
2023/07/29 05:43:43;;;;;;;4.38;2.15;;;;;;;;;;5031620;28;20081;-62
2023/07/29 05:46:10;;;;;;;5.85;2.75;;;;;;;;;;5040267;28;20052;-65
2023/07/29 05:48:36;;;;;;;5.22;2.63;;;;;;;;;;5042650;28;20516;-64
2023/07/29 05:51:05;;;;;;;5.55;2.17;;;;;;;;;;5040613;28;20076;-61
2023/07/29 05:53:32;;;;;;;3.33;2.58;;;;;;;;;;5039671;28;20053;-64
2023/07/29 05:55:58;;;;;;;8.73;2.83;;;;;;;;;;5039629;28;20054;-66
2023/07/29 05:58:24;;;;;;;6.57;3.20;;;;;;;;;;5037499;28;20159;-61
2023/07/29 06:00:51;;;;;;;3.35;2.50;;;;;;;;;;5035478;28;20151;-61
2023/07/29 06:03:17;;;;;;;6.22;2.75;;;;;;;;;;5040846;28;20400;-63
2023/07/29 06:05:44;;;;;;;2.85;2.50;;;;;;;;;;5040413;28;20110;-68
2023/07/29 06:08:11;;;;;;;3.53;2.50;;;;;;;;;;5041108;28;20065;-63
2023/07/29 06:10:38;;;;;;;4.03;2.25;;;;;;;;;;5041231;28;20429;-63
2023/07/29 06:13:04;;;;;;;4.53;2.53;;;;;;;;;;5040539;28;20212;-67
2023/07/29 06:15:31;;;;;;;6.30;2.80;;;;;;;;;;5041654;28;20053;-65
2023/07/29 06:17:57;;;;;;;9.98;2.90;;;;;;;;;;5041103;28;20053;-65
2023/07/29 06:20:24;;;;;;;5.03;2.80;;;;;;;;;;5036776;28;20050;-62
2023/07/29 06:22:50;;;;;;;6.38;3.33;;;;;;;;;;5039319;28;20508;-66
2023/07/29 06:25:16;;;;;;;7.57;3.17;;;;;;;;;;5039900;28;20155;-65
2023/07/29 06:27:43;;;;;;;3.70;3.03;;;;;;;;;;5036156;28;20089;-63
2023/07/29 06:30:10;;;;;;;5.32;3.15;;;;;;;;;;5028951;28;20555;-64
2023/07/29 06:32:36;;;;;;;10.52;3.03;;;;;;;;;;5041212;28;20516;-63
2023/07/29 06:35:03;;;;;;;11.23;3.58;;;;;;;;;;5031134;28;20494;-61
2023/07/29 06:37:29;;;;;;;5.63;2.67;;;;;;;;;;5040002;28;20515;-64
2023/07/29 06:39:56;;;;;;;5.15;2.40;;;;;;;;;;5039559;28;20503;-62
2023/07/29 06:42:22;;;;;;;3.78;2.67;;;;;;;;;;5036364;28;20292;-63
2023/07/29 06:44:49;;;;;;;5.90;3.00;;;;;;;;;;5040477;28;20467;-60
2023/07/29 06:47:15;;;;;;;5.15;3.13;;;;;;;;;;5041152;28;20050;-64
2023/07/29 06:49:42;;;;;;;6.10;2.97;;;;;;;;;;5040372;28;20504;-67
2023/07/29 06:52:09;;;;;;;8.52;3.20;;;;;;;;;;5043451;28;20145;-65
2023/07/29 06:54:35;;;;;;;5.70;2.50;;;;;;;;;;5044668;28;20053;-63
2023/07/29 06:57:02;;;;;;;6.13;3.17;;;;;;;;;;5044063;28;20088;-64
2023/07/29 06:59:28;;;;;;;4.78;3.55;;;;;;;;;;5035084;28;20054;-67
2023/07/29 07:01:55;;;;;;;9.77;3.70;;;;;;;;;;5042048;28;20204;-62
2023/07/29 07:04:21;;;;;;;5.15;3.40;;;;;;;;;;5040459;28;20053;-64
2023/07/29 07:06:48;;;;;;;8.40;4.20;;;;;;;;;;5043296;28;20691;-62
2023/07/29 07:09:14;;;;;;;7.65;4.47;;;;;;;;;;5043396;28;20061;-60
2023/07/29 07:11:40;;;;;;;6.47;4.70;;;;;;;;;;5041937;28;20045;-63
2023/07/29 07:14:07;;;;;;;7.15;4.55;;;;;;;;;;5028364;28;20101;-66
2023/07/29 07:16:35;;;;;;;6.55;4.05;;;;;;;;;;5038981;28;20057;-60
2023/07/29 07:19:02;;;;;;;5.65;3.88;;;;;;;;;;5043593;28;20415;-66
2023/07/29 07:21:29;;;;;;;6.28;3.58;;;;;;;;;;5040557;28;20135;-67
2023/07/29 07:23:56;;;;;;;5.68;3.78;;;;;;;;;;5029962;28;20050;-65
2023/07/29 07:26:22;;;;;;;7.97;4.15;;;;;;;;;;5040764;28;20519;-65
2023/07/29 07:28:48;;;;;;;5.38;3.58;;;;;;;;;;5043057;28;20053;-67
2023/07/29 07:31:16;;;;;;;5.07;3.30;;;;;;;;;;5043416;28;20171;-65
2023/07/29 07:33:45;;;;;;;4.25;3.40;;;;;;;;;;5042306;28;20050;-62
2023/07/29 07:36:12;;;;;;;7.43;3.90;;;;;;;;;;5042720;28;20103;-67
2023/07/29 07:38:38;;;;;;;10.68;3.92;;;;;;;;;;5042289;28;20063;-66
2023/07/29 07:41:05;;;;;;;4.60;3.85;;;;;;;;;;5043330;28;20144;-68
2023/07/29 07:43:31;;;;;;;6.22;4.22;;;;;;;;;;5042987;28;21029;-64
2023/07/29 07:45:59;;;;;;;6.65;4.30;;;;;;;;;;5042490;28;20088;-63
2023/07/29 07:48:26;;;;;;;6.47;3.47;;;;;;;;;;5041902;28;20057;-64
2023/07/29 07:50:53;;;;;;;5.47;3.55;;;;;;;;;;5042332;28;20053;-63
2023/07/29 07:53:22;;;;;;;5.28;4.18;;;;;;;;;;5046828;28;20064;-66
2023/07/29 07:55:48;;;;;;;5.38;4.28;;;;;;;;;;5040870;28;20499;-63
2023/07/29 07:58:15;;;;;;;8.70;4.50;;;;;;;;;;5041490;28;20053;-65
2023/07/29 08:00:41;;;;;;;4.38;3.97;;;;;;;;;;5045302;28;20054;-67
2023/07/29 08:03:08;;;;;;;5.55;3.78;;;;;;;;;;5042111;28;20076;-65
2023/07/29 08:05:35;;;;;;;4.95;4.45;;;;;;;;;;5043460;28;20068;-64
2023/07/29 08:08:01;;;;;;;8.93;4.47;;;;;;;;;;5044168;28;20555;-65
2023/07/29 08:10:28;;;;;;;5.75;3.53;;;;;;;;;;5039902;28;20049;-64
2023/07/29 08:12:54;;;;;;;4.68;3.90;;;;;;;;;;5041419;28;20057;-61
2023/07/29 08:15:20;;;;;;;5.40;4.30;;;;;;;;;;5040601;28;20059;-65
2023/07/29 08:17:47;;;;;;;5.55;3.83;;;;;;;;;;5042435;28;20049;-64
2023/07/29 08:20:14;;;;;;;5.15;4.10;;;;;;;;;;5040600;28;20081;-61
2023/07/29 08:22:40;;;;;;;7.05;4.68;;;;;;;;;;5074462;28;20050;-60
2023/07/29 08:25:06;;;;;;;6.15;3.97;;;;;;;;;;5040820;28;20079;-66
2023/07/29 08:27:34;;;;;;;6.68;4.00;;;;;;;;;;5046369;28;20522;-61
2023/07/29 08:30:00;;;;;;;4.95;3.70;;;;;;;;;;5043687;28;20534;-66
2023/07/29 08:32:27;;;;;;;4.57;3.33;;;;;;;;;;5031580;28;20430;-62
2023/07/29 08:34:53;;;;;;;4.45;3.17;;;;;;;;;;5031635;28;20053;-66
2023/07/29 08:37:20;;;;;;;4.40;2.97;;;;;;;;;;5042739;28;20508;-62
2023/07/29 08:39:46;;;;;;;3.92;3.17;;;;;;;;;;5042000;28;20153;-65
2023/07/29 08:42:14;;;;;;;4.80;2.97;;;;;;;;;;5042291;28;20148;-67
2023/07/29 08:44:44;;;;;;;4.43;2.78;;;;;;;;;;5038552;28;20188;-62
2023/07/29 08:47:12;;;;;;;3.45;2.75;;;;;;;;;;5040373;28;20054;-41
2023/07/29 08:49:40;;;;;;;3.90;3.50;;;;;;;;;;5043865;28;20049;-61
2023/07/29 08:52:07;;;;;;;3.50;3.20;;;;;;;;;;5041832;28;20441;-61
2023/07/29 08:54:33;;;;;;;4.80;3.03;;;;;;;;;;5041534;28;20049;-60
2023/07/29 08:57:00;;;;;;;4.07;3.67;;;;;;;;;;5041921;28;20341;-64
2023/07/29 08:59:28;;;;;;;3.15;2.65;;;;;;;;;;5042747;28;20050;-64
2023/07/29 09:01:56;;;;;;;6.65;3.88;;;;;;;;;;5039892;28;20049;-65
2023/07/29 09:04:23;;;;;;;3.35;3.05;;;;;;;;;;5043125;28;20916;-61
2023/07/29 09:06:50;;;;;;;7.45;3.67;;;;;;;;;;5040028;28;20085;-65
2023/07/29 09:09:17;;;;;;;3.33;3.03;;;;;;;;;;5041945;28;20067;-65
2023/07/29 09:11:43;;;;;;;5.93;3.38;;;;;;;;;;5042945;28;20053;-64
2023/07/29 09:14:10;;;;;;;8.32;3.53;;;;;;;;;;5039839;28;20104;-63
2023/07/29 09:16:37;;;;;;;3.95;3.30;;;;;;;;;;5040547;28;20512;-65
2023/07/29 09:19:04;;;;;;;5.38;3.85;;;;;;;;;;5048476;28;20058;-63
2023/07/29 09:21:31;;;;;;;3.53;3.22;;;;;;;;;;5042754;28;20119;-63
2023/07/29 09:24:02;;;;;;;5.50;3.92;;;;;;;;;;5041568;28;20515;-64
2023/07/29 09:26:28;;;;;;;4.22;3.28;;;;;;;;;;5042112;28;20569;-64
2023/07/29 09:28:56;;;;;;;3.60;3.05;;;;;;;;;;5041722;28;20524;-63
2023/07/29 09:31:23;;;;;;;5.47;2.90;;;;;;;;;;5040888;28;20100;-63
2023/07/29 09:33:50;;;;;;;3.47;2.92;;;;;;;;;;5042519;28;20587;-67
2023/07/29 09:36:16;;;;;;;3.67;3.08;;;;;;;;;;5040614;28;20050;-61
2023/07/29 09:38:44;;;;;;;5.25;3.00;;;;;;;;;;5040524;28;20050;-64
2023/07/29 09:41:12;;;;;;;4.80;3.30;;;;;;;;;;5041399;28;20053;-63
2023/07/29 09:43:38;;;;;;;3.45;2.97;;;;;;;;;;5041268;28;20056;-64
2023/07/29 09:46:07;;;;;;;3.03;2.72;;;;;;;;;;5040779;28;20148;-64
2023/07/29 09:48:34;;;;;;;5.03;3.40;;;;;;;;;;5041458;28;20054;-61
2023/07/29 09:51:09;;;;;;;3.33;2.75;;;;;;;;;;5041528;28;20057;-61
2023/07/29 09:53:39;;;;;;;4.90;3.15;;;;;;;;;;5043542;28;20140;-64
2023/07/29 09:56:05;;;;;;;8.52;3.55;;;;;;;;;;5040445;28;20069;-64
2023/07/29 09:58:32;;;;;;;3.33;3.00;;;;;;;;;;5040102;28;20544;-62
2023/07/29 10:00:59;;;;;;;5.32;4.03;;;;;;;;;;5038533;28;20513;-62
2023/07/29 10:03:25;;;;;;;6.65;3.40;;;;;;;;;;5035864;28;20056;-65
2023/07/29 10:05:52;;;;;;;11.02;4.32;;;;;;;;;;5040327;28;20081;-63
2023/07/29 10:08:19;;;;;;;5.25;3.25;;;;;;;;;;5040694;28;20062;-63
2023/07/29 10:10:46;;;;;;;7.85;3.35;;;;;;;;;;5039139;28;20053;-61
2023/07/29 10:13:13;;;;;;;4.43;2.85;;;;;;;;;;5041522;28;20133;-63
2023/07/29 10:15:40;;;;;;;5.68;3.20;;;;;;;;;;5038824;28;20239;-61
2023/07/29 10:18:07;;;;;;;3.13;2.67;;;;;;;;;;5040542;28;20158;-64
2023/07/29 10:20:33;;;;;;;2.88;2.47;;;;;;;;;;5035574;28;20507;-61
2023/07/29 10:23:00;;;;;;;3.90;2.72;;;;;;;;;;5040247;28;20077;-62
2023/07/29 10:25:34;;;;;;;5.85;2.85;;;;;;;;;;5041945;28;20053;-64
2023/07/29 10:28:07;;;;;;;3.95;2.85;;;;;;;;;;5044672;28;20483;-63
2023/07/29 10:30:34;;;;;;;6.80;2.97;;;;;;;;;;5043313;28;20049;-60
2023/07/29 10:33:06;;;;;;;3.88;2.50;;;;;;;;;;5044433;28;20998;-64
2023/07/29 10:35:34;;;;;;;6.45;2.70;;;;;;;;;;5044352;28;20446;-61
2023/07/29 10:38:01;;;;;;;5.32;3.05;;;;;;;;;;5043508;28;20053;-59
2023/07/29 10:40:43;;;;;;;4.57;3.50;;;;;;;;;;5045282;28;20327;-64
2023/07/29 10:43:14;;;;;;;13.32;5.10;;;;;;;;;;5044947;28;20053;-66
2023/07/29 10:45:41;;;;;;;4.85;3.65;;;;;;;;;;5045434;28;20108;-62
2023/07/29 10:48:34;;;;;;;5.93;4.32;;;;;;;;;;5042466;28;20049;-65
2023/07/29 10:51:20;;;;;;;6.90;4.25;;;;;;;;;;5027810;28;20132;-62
2023/07/29 10:53:46;;;;;;;7.43;5.00;;;;;;;;;;5045228;28;20144;-64
2023/07/29 10:56:12;;;;;;;6.82;4.43;;;;;;;;;;5042150;28;20057;-63
2023/07/29 10:58:42;;;;;;;7.28;4.40;;;;;;;;;;5043751;28;20053;-64
2023/07/29 11:01:25;;;;;;;6.65;4.00;;;;;;;;;;5044593;28;20077;-65
2023/07/29 11:04:24;;;;;;;4.50;4.15;;;;;;;;;;5044227;28;20081;-64
2023/07/29 11:07:03;;;;;;;6.00;4.40;;;;;;;;;;5042770;28;20057;-60
2023/07/29 11:09:51;;;;;;;5.45;4.90;;;;;;;;;;5045024;28;20057;-64
2023/07/29 11:12:33;;;;;;;5.65;5.13;;;;;;;;;;5025874;28;20154;-64
2023/07/29 11:15:04;;;;;;;7.03;4.78;;;;;;;;;;5039909;28;20060;-62
2023/07/29 11:17:32;;;;;;;5.38;4.80;;;;;;;;;;5038545;28;20061;-63
2023/07/29 11:20:03;;;;;;;5.93;4.88;;;;;;;;;;5043171;28;20137;-65
2023/07/29 11:22:30;;;;;;;10.48;5.10;;;;;;;;;;5042262;28;20079;-62
2023/07/29 11:24:59;;;;;;;5.72;4.43;;;;;;;;;;5045097;28;20330;-65
2023/07/29 11:27:26;;;;;;;2.58;2.38;;;;;;;;;;5041146;28;20052;-65
2023/07/29 11:30:00;;;;;;;2.90;2.30;;;;;;;;;;5041773;28;20246;-62
2023/07/29 11:32:26;;;;;;;3.50;2.28;;;;;;;;;;5043534;28;20151;-62
2023/07/29 11:34:53;;;;;;;2.50;1.95;;;;;;;;;;5042702;28;20523;-64
2023/07/29 11:37:21;;;;;;;2.72;1.85;;;;;;;;;;5042713;28;20590;-64
2023/07/29 11:39:47;;;;;;;1.30;1.20;;;;;;;;;;5043250;28;20072;-64
2023/07/29 11:42:14;;;;;;;1.80;1.40;;;;;;;;;;5043348;28;20417;-64
2023/07/29 11:44:41;;;;;;;2.35;1.50;;;;;;;;;;5044502;28;20699;-64
2023/07/29 11:47:08;;;;;;;1.63;1.40;;;;;;;;;;5042345;28;20049;-62
2023/07/29 11:49:35;;;;;;;2.15;1.20;;;;;;;;;;5042814;28;20431;-61
2023/07/29 11:52:02;;;;;;;1.25;1.13;;;;;;;;;;5043229;28;20116;-64
2023/07/29 11:54:29;;;;;;;2.05;1.27;;;;;;;;;;5042677;28;20100;-61
2023/07/29 11:56:56;;;;;;;1.42;1.33;;;;;;;;;;5043007;28;20533;-64
2023/07/29 11:59:23;;;;;;;1.13;1.02;;;;;;;;;;5043237;28;20065;-61
2023/07/29 12:01:49;;;;;;;4.07;0.95;;;;;;;;;;5041340;28;20574;-62
2023/07/29 12:04:16;;;;;;;1.33;0.98;;;;;;;;;;5042722;28;20053;-61
2023/07/29 12:06:43;;;;;;;1.77;1.35;;;;;;;;;;5042845;28;20053;-65
2023/07/29 12:09:09;;;;;;;2.05;1.40;;;;;;;;;;5037623;28;20535;-64
2023/07/29 12:11:36;;;;;;;5.55;1.77;;;;;;;;;;5042938;28;20684;-63
2023/07/29 12:14:02;;;;;;;1.50;1.40;;;;;;;;;;5042375;28;20085;-63
2023/07/29 12:16:34;;;;;;;2.92;1.45;;;;;;;;;;5043016;28;20144;-62
2023/07/29 12:19:01;;;;;;;5.07;1.27;;;;;;;;;;5043480;28;20057;-61
2023/07/29 12:21:28;;;;;;;1.30;1.00;;;;;;;;;;5040985;28;20140;-60
2023/07/29 12:23:55;;;;;;;1.05;1.00;;;;;;;;;;5040363;28;20049;-59
2023/07/29 12:26:29;;;;;;;1.33;0.90;;;;;;;;;;5041207;28;20057;-61
2023/07/29 12:28:56;;;;;;;1.25;1.05;;;;;;;;;;5041363;28;20509;-60
2023/07/29 12:31:30;;;;;;;1.25;0.90;;;;;;;;;;5042219;28;20057;-61
2023/07/29 12:33:57;;;;;;;2.25;1.40;;;;;;;;;;5042389;28;20064;-60
2023/07/29 12:36:27;;;;;;;3.67;1.33;;;;;;;;;;5043326;28;20107;-60
2023/07/29 12:38:53;;;;;;;1.33;1.08;;;;;;;;;;5034231;28;20059;-62
2023/07/29 12:41:23;;;;;;;1.55;1.20;;;;;;;;;;5041681;28;20112;-64
2023/07/29 12:43:49;;;;;;;1.52;1.20;;;;;;;;;;5040082;28;20512;-64
2023/07/29 12:46:16;;;;;;;1.10;1.00;;;;;;;;;;5041142;28;21925;-64
2023/07/29 12:48:42;;;;;;;2.78;1.33;;;;;;;;;;5043870;28;20644;-65
2023/07/29 12:51:09;;;;;;;2.90;1.20;;;;;;;;;;5043311;28;20060;-63
2023/07/29 12:53:36;;;;;;;2.10;1.23;;;;;;;;;;5042404;28;20584;-63
2023/07/29 12:56:02;;;;;;;1.33;1.23;;;;;;;;;;5042315;28;20053;-61
2023/07/29 12:58:29;;;;;;;2.67;1.20;;;;;;;;;;5042659;28;20136;-64
2023/07/29 13:00:55;;;;;;;1.60;1.45;;;;;;;;;;5040722;28;20057;-62
2023/07/29 13:03:22;;;;;;;4.70;1.65;;;;;;;;;;5044528;28;20073;-65
2023/07/29 13:05:48;;;;;;;1.50;1.40;;;;;;;;;;5042063;28;20056;-64
2023/07/29 13:08:15;;;;;;;2.13;1.55;;;;;;;;;;5042246;28;20077;-63
2023/07/29 13:10:41;;;;;;;3.10;1.40;;;;;;;;;;5031856;28;20053;-62
2023/07/29 13:13:08;;;;;;;2.40;1.58;;;;;;;;;;5050395;28;20055;-67
2023/07/29 13:15:34;;;;;;;1.92;1.50;;;;;;;;;;5046824;28;20061;-65
2023/07/29 13:18:01;;;;;;;1.83;1.63;;;;;;;;;;5033332;28;20053;-63
2023/07/29 13:20:29;;;;;;;1.67;1.30;;;;;;;;;;5041956;28;20076;-65
2023/07/29 13:22:55;;;;;;;3.17;1.63;;;;;;;;;;5042802;28;20053;-63
2023/07/29 13:25:22;;;;;;;1.52;1.42;;;;;;;;;;5039362;28;20125;-65
2023/07/29 13:27:48;;;;;;;1.92;1.63;;;;;;;;;;5036221;28;20127;-63
2023/07/29 13:30:14;;;;;;;4.68;1.73;;;;;;;;;;5042064;28;20144;-62
2023/07/29 13:32:41;;;;;;;2.80;1.70;;;;;;;;;;5043428;28;20111;-65
2023/07/29 13:35:08;;;;;;;2.60;1.52;;;;;;;;;;5041900;28;20180;-64
2023/07/29 13:37:34;;;;;;;2.47;1.38;;;;;;;;;;5040503;28;20474;-64
2023/07/29 13:40:00;;;;;;;1.30;1.20;;;;;;;;;;5041836;28;20060;-64
2023/07/29 13:42:27;;;;;;;2.83;1.25;;;;;;;;;;5042977;28;20064;-64
2023/07/29 13:44:54;;;;;;;1.65;1.35;;;;;;;;;;5042417;28;20205;-61
2023/07/29 13:47:20;;;;;;;6.22;3.92;;;;;;;;;;5042670;28;20140;-62
2023/07/29 13:49:46;;;;;;;2.92;1.92;;;;;;;;;;5043219;28;20598;-65
2023/07/29 13:52:13;;;;;;;2.90;2.22;;;;;;;;;;5039143;28;20492;-63
2023/07/29 13:54:40;;;;;;;3.75;3.45;;;;;;;;;;5041066;28;20977;-63
2023/07/29 13:57:06;;;;;;;2.38;2.10;;;;;;;;;;5041196;28;20188;-64
2023/07/29 13:59:33;;;;;;;4.22;3.67;;;;;;;;;;5040842;28;20500;-62
2023/07/29 14:01:59;;;;;;;4.57;3.75;;;;;;;;;;5041766;28;20068;-65
2023/07/29 14:04:25;;;;;;;10.45;8.52;;;;;;;;;;5034709;28;20053;-65
2023/07/29 14:06:52;;;;;;;6.05;4.68;;;;;;;;;;5038945;28;20160;-65
2023/07/29 14:09:25;;;;;;;3.13;2.70;;;;;;;;;;5030510;28;20053;-64
2023/07/29 14:11:51;;;;;;;1.90;1.80;;;;;;;;;;5042551;28;20050;-62
2023/07/29 14:14:18;;;;;;;3.47;1.70;;;;;;;;;;5042115;28;20483;-65
2023/07/29 14:16:48;;;;;;;2.30;2.05;;;;;;;;;;5041743;28;20049;-62
2023/07/29 14:19:15;;;;;;;2.83;2.42;;;;;;;;;;5041586;28;20072;-61
2023/07/29 14:21:42;;;;;;;2.95;2.55;;;;;;;;;;5041648;28;20522;-64
2023/07/29 14:24:08;;;;;;;2.85;1.50;;;;;;;;;;5038200;28;20635;-61
2023/07/29 14:26:34;;;;;;;4.03;3.00;;;;;;;;;;5041745;28;20131;-64
2023/07/29 14:29:01;;;;;;;6.05;3.95;;;;;;;;;;5040956;28;20069;-65
2023/07/29 14:31:28;;;;;;;3.30;2.15;;;;;;;;;;5041999;28;20056;-62
2023/07/29 14:33:55;;;;;;;1.90;1.60;;;;;;;;;;5040578;28;20861;-65
2023/07/29 14:36:22;;;;;;;2.67;1.60;;;;;;;;;;5042046;28;20053;-63
2023/07/29 14:38:48;;;;;;;2.92;1.17;;;;;;;;;;5039840;28;20054;-64
2023/07/29 14:41:15;;;;;;;1.30;1.17;;;;;;;;;;5040457;28;20084;-64
2023/07/29 14:43:41;;;;;;;1.77;1.15;;;;;;;;;;5041499;28;20507;-65